sensor_id;sensor_type;location;lat;lon;timestamp;P1;durP1;ratioP1;P2;durP2;ratioP2
67272;SDS011;54190;49.770;9.250;2023-10-08T00:01:35;9.20;;;5.10;;
67272;SDS011;54190;49.770;9.250;2023-10-08T00:04:05;8.53;;;4.20;;
67272;SDS011;54190;49.770;9.250;2023-10-08T00:06:33;8.50;;;4.73;;
67272;SDS011;54190;49.770;9.250;2023-10-08T00:08:58;8.30;;;4.50;;
67272;SDS011;54190;49.770;9.250;2023-10-08T00:11:34;9.27;;;4.90;;
67272;SDS011;54190;49.770;9.250;2023-10-08T00:14:01;8.10;;;4.20;;
67272;SDS011;54190;49.770;9.250;2023-10-08T00:16:30;7.50;;;4.00;;
67272;SDS011;54190;49.770;9.250;2023-10-08T00:18:58;6.90;;;3.93;;
67272;SDS011;54190;49.770;9.250;2023-10-08T00:21:32;6.57;;;3.60;;
67272;SDS011;54190;49.770;9.250;2023-10-08T00:24:00;6.13;;;3.93;;
67272;SDS011;54190;49.770;9.250;2023-10-08T00:26:28;6.37;;;3.67;;
67272;SDS011;54190;49.770;9.250;2023-10-08T00:28:58;5.77;;;2.93;;
67272;SDS011;54190;49.770;9.250;2023-10-08T00:31:46;5.17;;;2.70;;
67272;SDS011;54190;49.770;9.250;2023-10-08T00:34:14;5.30;;;3.27;;
67272;SDS011;54190;49.770;9.250;2023-10-08T00:36:42;6.47;;;3.10;;
67272;SDS011;54190;49.770;9.250;2023-10-08T00:39:11;7.93;;;3.33;;
67272;SDS011;54190;49.770;9.250;2023-10-08T00:41:45;6.10;;;2.87;;
67272;SDS011;54190;49.770;9.250;2023-10-08T00:44:11;5.50;;;2.93;;
67272;SDS011;54190;49.770;9.250;2023-10-08T00:46:40;6.57;;;2.80;;
67272;SDS011;54190;49.770;9.250;2023-10-08T00:49:12;6.23;;;2.80;;
67272;SDS011;54190;49.770;9.250;2023-10-08T00:52:01;5.20;;;2.77;;
67272;SDS011;54190;49.770;9.250;2023-10-08T00:54:34;5.13;;;2.80;;
67272;SDS011;54190;49.770;9.250;2023-10-08T00:57:17;7.50;;;3.20;;
67272;SDS011;54190;49.770;9.250;2023-10-08T00:59:47;5.97;;;2.90;;
67272;SDS011;54190;49.770;9.250;2023-10-08T01:02:26;4.97;;;2.63;;
67272;SDS011;54190;49.770;9.250;2023-10-08T01:04:54;6.93;;;2.73;;
67272;SDS011;54190;49.770;9.250;2023-10-08T01:07:21;6.93;;;3.37;;
67272;SDS011;54190;49.770;9.250;2023-10-08T01:09:48;4.07;;;2.53;;
67272;SDS011;54190;49.770;9.250;2023-10-08T01:12:25;4.20;;;2.43;;
67272;SDS011;54190;49.770;9.250;2023-10-08T01:15:01;5.10;;;2.67;;
67272;SDS011;54190;49.770;9.250;2023-10-08T01:17:46;6.17;;;2.43;;
67272;SDS011;54190;49.770;9.250;2023-10-08T01:20:35;9.10;;;3.20;;
67272;SDS011;54190;49.770;9.250;2023-10-08T01:23:10;4.33;;;2.60;;
67272;SDS011;54190;49.770;9.250;2023-10-08T01:25:41;3.80;;;2.33;;
67272;SDS011;54190;49.770;9.250;2023-10-08T01:28:08;4.30;;;2.63;;
67272;SDS011;54190;49.770;9.250;2023-10-08T01:30:43;5.00;;;2.87;;
67272;SDS011;54190;49.770;9.250;2023-10-08T01:33:13;5.10;;;2.50;;
67272;SDS011;54190;49.770;9.250;2023-10-08T01:35:41;5.37;;;2.87;;
67272;SDS011;54190;49.770;9.250;2023-10-08T01:38:07;4.27;;;2.40;;
67272;SDS011;54190;49.770;9.250;2023-10-08T01:40:38;4.00;;;2.10;;
67272;SDS011;54190;49.770;9.250;2023-10-08T01:43:07;4.60;;;2.90;;
67272;SDS011;54190;49.770;9.250;2023-10-08T01:45:35;5.43;;;2.93;;
67272;SDS011;54190;49.770;9.250;2023-10-08T01:48:05;3.90;;;2.37;;
67272;SDS011;54190;49.770;9.250;2023-10-08T01:50:31;5.77;;;2.93;;
67272;SDS011;54190;49.770;9.250;2023-10-08T01:52:59;4.80;;;2.50;;
67272;SDS011;54190;49.770;9.250;2023-10-08T01:55:25;6.87;;;3.03;;
67272;SDS011;54190;49.770;9.250;2023-10-08T01:57:51;3.67;;;2.10;;
67272;SDS011;54190;49.770;9.250;2023-10-08T02:00:17;5.50;;;2.80;;
67272;SDS011;54190;49.770;9.250;2023-10-08T02:02:47;4.77;;;2.37;;
67272;SDS011;54190;49.770;9.250;2023-10-08T02:05:15;4.13;;;2.60;;
67272;SDS011;54190;49.770;9.250;2023-10-08T02:07:46;6.83;;;3.00;;
67272;SDS011;54190;49.770;9.250;2023-10-08T02:10:12;5.67;;;2.57;;
67272;SDS011;54190;49.770;9.250;2023-10-08T02:12:40;4.40;;;2.73;;
67272;SDS011;54190;49.770;9.250;2023-10-08T02:15:07;4.00;;;2.70;;
67272;SDS011;54190;49.770;9.250;2023-10-08T02:17:33;4.97;;;2.50;;
67272;SDS011;54190;49.770;9.250;2023-10-08T02:19:59;7.17;;;3.40;;
67272;SDS011;54190;49.770;9.250;2023-10-08T02:22:26;4.47;;;2.40;;
67272;SDS011;54190;49.770;9.250;2023-10-08T02:24:52;5.67;;;3.27;;
67272;SDS011;54190;49.770;9.250;2023-10-08T02:27:20;5.57;;;2.90;;
67272;SDS011;54190;49.770;9.250;2023-10-08T02:29:45;4.30;;;2.43;;
67272;SDS011;54190;49.770;9.250;2023-10-08T02:32:11;6.67;;;2.87;;
67272;SDS011;54190;49.770;9.250;2023-10-08T02:34:37;5.30;;;2.87;;
67272;SDS011;54190;49.770;9.250;2023-10-08T02:37:02;4.80;;;3.10;;
67272;SDS011;54190;49.770;9.250;2023-10-08T02:39:31;5.30;;;2.77;;
67272;SDS011;54190;49.770;9.250;2023-10-08T02:41:57;4.90;;;2.80;;
67272;SDS011;54190;49.770;9.250;2023-10-08T02:44:24;5.20;;;2.90;;
67272;SDS011;54190;49.770;9.250;2023-10-08T02:46:50;5.97;;;3.03;;
67272;SDS011;54190;49.770;9.250;2023-10-08T02:49:17;6.13;;;3.23;;
67272;SDS011;54190;49.770;9.250;2023-10-08T02:51:51;4.67;;;2.77;;
67272;SDS011;54190;49.770;9.250;2023-10-08T02:54:19;6.60;;;2.60;;
67272;SDS011;54190;49.770;9.250;2023-10-08T02:56:51;5.53;;;2.80;;
67272;SDS011;54190;49.770;9.250;2023-10-08T02:59:29;4.77;;;2.53;;
67272;SDS011;54190;49.770;9.250;2023-10-08T03:02:07;3.93;;;2.57;;
67272;SDS011;54190;49.770;9.250;2023-10-08T03:04:42;7.90;;;2.87;;
67272;SDS011;54190;49.770;9.250;2023-10-08T03:07:12;4.40;;;2.40;;
67272;SDS011;54190;49.770;9.250;2023-10-08T03:09:48;4.17;;;2.90;;
67272;SDS011;54190;49.770;9.250;2023-10-08T03:12:28;5.23;;;2.90;;
67272;SDS011;54190;49.770;9.250;2023-10-08T03:14:57;5.23;;;2.63;;
67272;SDS011;54190;49.770;9.250;2023-10-08T03:17:37;5.90;;;3.00;;
67272;SDS011;54190;49.770;9.250;2023-10-08T03:20:14;6.90;;;2.67;;
67272;SDS011;54190;49.770;9.250;2023-10-08T03:22:54;4.83;;;2.47;;
67272;SDS011;54190;49.770;9.250;2023-10-08T03:25:22;4.80;;;2.73;;
67272;SDS011;54190;49.770;9.250;2023-10-08T03:27:49;6.87;;;3.33;;
67272;SDS011;54190;49.770;9.250;2023-10-08T03:30:15;5.10;;;2.90;;
67272;SDS011;54190;49.770;9.250;2023-10-08T03:32:42;3.60;;;2.20;;
67272;SDS011;54190;49.770;9.250;2023-10-08T03:35:20;4.57;;;2.83;;
67272;SDS011;54190;49.770;9.250;2023-10-08T03:37:53;5.67;;;2.70;;
67272;SDS011;54190;49.770;9.250;2023-10-08T03:40:19;3.97;;;2.47;;
67272;SDS011;54190;49.770;9.250;2023-10-08T03:43:07;4.07;;;2.43;;
67272;SDS011;54190;49.770;9.250;2023-10-08T03:45:45;7.33;;;3.13;;
67272;SDS011;54190;49.770;9.250;2023-10-08T03:48:18;3.97;;;2.30;;
67272;SDS011;54190;49.770;9.250;2023-10-08T03:50:47;5.27;;;3.30;;
67272;SDS011;54190;49.770;9.250;2023-10-08T03:53:22;3.70;;;2.33;;
67272;SDS011;54190;49.770;9.250;2023-10-08T03:55:48;4.10;;;2.90;;
67272;SDS011;54190;49.770;9.250;2023-10-08T03:58:17;5.23;;;2.80;;
67272;SDS011;54190;49.770;9.250;2023-10-08T04:00:53;5.83;;;3.17;;
67272;SDS011;54190;49.770;9.250;2023-10-08T04:03:33;4.80;;;2.80;;
67272;SDS011;54190;49.770;9.250;2023-10-08T04:06:18;5.77;;;2.90;;
67272;SDS011;54190;49.770;9.250;2023-10-08T04:08:54;6.13;;;2.87;;
67272;SDS011;54190;49.770;9.250;2023-10-08T04:11:35;4.23;;;2.40;;
67272;SDS011;54190;49.770;9.250;2023-10-08T04:14:01;5.40;;;2.23;;
67272;SDS011;54190;49.770;9.250;2023-10-08T04:16:28;4.23;;;2.53;;
67272;SDS011;54190;49.770;9.250;2023-10-08T04:18:55;5.07;;;2.87;;
67272;SDS011;54190;49.770;9.250;2023-10-08T04:21:24;5.30;;;2.63;;
67272;SDS011;54190;49.770;9.250;2023-10-08T04:23:53;5.07;;;3.43;;
67272;SDS011;54190;49.770;9.250;2023-10-08T04:26:21;5.87;;;2.80;;
67272;SDS011;54190;49.770;9.250;2023-10-08T04:28:53;4.93;;;3.03;;
67272;SDS011;54190;49.770;9.250;2023-10-08T04:31:23;4.43;;;2.30;;
67272;SDS011;54190;49.770;9.250;2023-10-08T04:34:05;5.53;;;2.63;;
67272;SDS011;54190;49.770;9.250;2023-10-08T04:36:47;4.60;;;2.67;;
67272;SDS011;54190;49.770;9.250;2023-10-08T04:39:20;4.40;;;2.70;;
67272;SDS011;54190;49.770;9.250;2023-10-08T04:41:54;4.93;;;2.57;;
67272;SDS011;54190;49.770;9.250;2023-10-08T04:44:23;4.70;;;2.57;;
67272;SDS011;54190;49.770;9.250;2023-10-08T04:46:51;4.43;;;2.73;;
67272;SDS011;54190;49.770;9.250;2023-10-08T04:49:18;6.17;;;3.20;;
67272;SDS011;54190;49.770;9.250;2023-10-08T04:51:56;5.13;;;2.93;;
67272;SDS011;54190;49.770;9.250;2023-10-08T04:54:26;5.73;;;2.90;;
67272;SDS011;54190;49.770;9.250;2023-10-08T04:56:56;4.77;;;2.80;;
67272;SDS011;54190;49.770;9.250;2023-10-08T04:59:23;5.20;;;2.90;;
67272;SDS011;54190;49.770;9.250;2023-10-08T05:01:57;4.67;;;2.80;;
67272;SDS011;54190;49.770;9.250;2023-10-08T05:04:42;5.70;;;3.10;;
67272;SDS011;54190;49.770;9.250;2023-10-08T05:07:17;5.27;;;2.93;;
67272;SDS011;54190;49.770;9.250;2023-10-08T05:09:47;5.63;;;3.00;;
67272;SDS011;54190;49.770;9.250;2023-10-08T05:12:28;4.90;;;2.53;;
67272;SDS011;54190;49.770;9.250;2023-10-08T05:15:10;4.33;;;2.50;;
67272;SDS011;54190;49.770;9.250;2023-10-08T05:17:43;7.03;;;2.63;;
67272;SDS011;54190;49.770;9.250;2023-10-08T05:20:18;5.53;;;2.80;;
67272;SDS011;54190;49.770;9.250;2023-10-08T05:22:55;5.00;;;2.93;;
67272;SDS011;54190;49.770;9.250;2023-10-08T05:25:31;4.93;;;2.43;;
67272;SDS011;54190;49.770;9.250;2023-10-08T05:28:22;5.40;;;2.50;;
67272;SDS011;54190;49.770;9.250;2023-10-08T05:30:51;5.10;;;2.60;;
67272;SDS011;54190;49.770;9.250;2023-10-08T05:33:36;5.53;;;2.87;;
67272;SDS011;54190;49.770;9.250;2023-10-08T05:36:21;6.63;;;3.10;;
67272;SDS011;54190;49.770;9.250;2023-10-08T05:39:05;5.80;;;3.10;;
67272;SDS011;54190;49.770;9.250;2023-10-08T05:41:49;5.40;;;3.23;;
67272;SDS011;54190;49.770;9.250;2023-10-08T05:44:30;5.27;;;3.03;;
67272;SDS011;54190;49.770;9.250;2023-10-08T05:47:05;4.27;;;2.37;;
67272;SDS011;54190;49.770;9.250;2023-10-08T05:49:37;4.60;;;2.70;;
67272;SDS011;54190;49.770;9.250;2023-10-08T05:52:03;4.60;;;2.40;;
67272;SDS011;54190;49.770;9.250;2023-10-08T05:54:30;4.60;;;2.50;;
67272;SDS011;54190;49.770;9.250;2023-10-08T05:56:57;4.30;;;2.70;;
67272;SDS011;54190;49.770;9.250;2023-10-08T05:59:36;5.40;;;2.73;;
67272;SDS011;54190;49.770;9.250;2023-10-08T06:02:21;6.40;;;3.00;;
67272;SDS011;54190;49.770;9.250;2023-10-08T06:05:08;5.70;;;2.77;;
67272;SDS011;54190;49.770;9.250;2023-10-08T06:07:47;4.60;;;2.80;;
67272;SDS011;54190;49.770;9.250;2023-10-08T06:10:20;4.20;;;2.60;;
67272;SDS011;54190;49.770;9.250;2023-10-08T06:12:51;5.30;;;2.90;;
67272;SDS011;54190;49.770;9.250;2023-10-08T06:15:27;6.03;;;3.40;;
67272;SDS011;54190;49.770;9.250;2023-10-08T06:18:09;4.80;;;2.70;;
67272;SDS011;54190;49.770;9.250;2023-10-08T06:20:36;5.10;;;2.73;;
67272;SDS011;54190;49.770;9.250;2023-10-08T06:23:04;4.80;;;3.03;;
67272;SDS011;54190;49.770;9.250;2023-10-08T06:25:32;5.40;;;3.27;;
67272;SDS011;54190;49.770;9.250;2023-10-08T06:28:09;5.70;;;3.20;;
67272;SDS011;54190;49.770;9.250;2023-10-08T06:30:36;4.93;;;2.90;;
67272;SDS011;54190;49.770;9.250;2023-10-08T06:33:06;5.63;;;2.70;;
67272;SDS011;54190;49.770;9.250;2023-10-08T06:35:33;5.63;;;3.10;;
67272;SDS011;54190;49.770;9.250;2023-10-08T06:37:58;5.70;;;3.00;;
67272;SDS011;54190;49.770;9.250;2023-10-08T06:40:26;5.77;;;3.73;;
67272;SDS011;54190;49.770;9.250;2023-10-08T06:43:04;5.73;;;3.30;;
67272;SDS011;54190;49.770;9.250;2023-10-08T06:45:46;7.47;;;3.83;;
67272;SDS011;54190;49.770;9.250;2023-10-08T06:48:17;5.80;;;3.60;;
67272;SDS011;54190;49.770;9.250;2023-10-08T06:50:47;8.90;;;4.80;;
67272;SDS011;54190;49.770;9.250;2023-10-08T06:53:13;7.07;;;3.90;;
67272;SDS011;54190;49.770;9.250;2023-10-08T06:55:42;7.10;;;4.20;;
67272;SDS011;54190;49.770;9.250;2023-10-08T06:58:08;6.63;;;3.73;;
67272;SDS011;54190;49.770;9.250;2023-10-08T07:00:36;5.27;;;3.37;;
67272;SDS011;54190;49.770;9.250;2023-10-08T07:03:08;4.60;;;3.17;;
67272;SDS011;54190;49.770;9.250;2023-10-08T07:05:40;8.83;;;4.33;;
67272;SDS011;54190;49.770;9.250;2023-10-08T07:08:09;6.87;;;3.63;;
67272;SDS011;54190;49.770;9.250;2023-10-08T07:10:38;8.73;;;3.23;;
67272;SDS011;54190;49.770;9.250;2023-10-08T07:13:06;6.13;;;3.40;;
67272;SDS011;54190;49.770;9.250;2023-10-08T07:15:33;5.90;;;3.43;;
67272;SDS011;54190;49.770;9.250;2023-10-08T07:18:05;5.47;;;3.50;;
67272;SDS011;54190;49.770;9.250;2023-10-08T07:20:45;5.87;;;3.37;;
67272;SDS011;54190;49.770;9.250;2023-10-08T07:23:13;7.10;;;3.30;;
67272;SDS011;54190;49.770;9.250;2023-10-08T07:25:54;7.33;;;3.30;;
67272;SDS011;54190;49.770;9.250;2023-10-08T07:28:36;6.30;;;3.20;;
67272;SDS011;54190;49.770;9.250;2023-10-08T07:31:14;5.37;;;3.20;;
67272;SDS011;54190;49.770;9.250;2023-10-08T07:33:45;6.80;;;3.60;;
67272;SDS011;54190;49.770;9.250;2023-10-08T07:36:12;7.93;;;4.10;;
67272;SDS011;54190;49.770;9.250;2023-10-08T07:38:42;5.10;;;3.30;;
67272;SDS011;54190;49.770;9.250;2023-10-08T07:41:09;6.63;;;3.70;;
67272;SDS011;54190;49.770;9.250;2023-10-08T07:43:42;7.20;;;3.57;;
67272;SDS011;54190;49.770;9.250;2023-10-08T07:46:12;7.80;;;3.83;;
67272;SDS011;54190;49.770;9.250;2023-10-08T07:48:40;5.53;;;3.33;;
67272;SDS011;54190;49.770;9.250;2023-10-08T07:51:08;5.63;;;3.23;;
67272;SDS011;54190;49.770;9.250;2023-10-08T07:53:34;5.20;;;3.10;;
67272;SDS011;54190;49.770;9.250;2023-10-08T07:56:07;4.87;;;3.13;;
67272;SDS011;54190;49.770;9.250;2023-10-08T07:58:36;6.80;;;3.70;;
67272;SDS011;54190;49.770;9.250;2023-10-08T08:01:06;5.93;;;3.00;;
67272;SDS011;54190;49.770;9.250;2023-10-08T08:03:33;5.33;;;3.40;;
67272;SDS011;54190;49.770;9.250;2023-10-08T08:06:02;7.90;;;3.33;;
67272;SDS011;54190;49.770;9.250;2023-10-08T08:08:34;5.27;;;3.23;;
67272;SDS011;54190;49.770;9.250;2023-10-08T08:11:04;8.70;;;3.33;;
67272;SDS011;54190;49.770;9.250;2023-10-08T08:13:33;5.30;;;3.27;;
67272;SDS011;54190;49.770;9.250;2023-10-08T08:15:59;6.30;;;3.60;;
67272;SDS011;54190;49.770;9.250;2023-10-08T08:18:37;6.47;;;3.73;;
67272;SDS011;54190;49.770;9.250;2023-10-08T08:21:03;7.10;;;4.17;;
67272;SDS011;54190;49.770;9.250;2023-10-08T08:23:39;9.27;;;4.17;;
67272;SDS011;54190;49.770;9.250;2023-10-08T08:26:05;5.40;;;3.10;;
67272;SDS011;54190;49.770;9.250;2023-10-08T08:28:32;6.20;;;3.50;;
67272;SDS011;54190;49.770;9.250;2023-10-08T08:31:04;8.77;;;4.10;;
67272;SDS011;54190;49.770;9.250;2023-10-08T08:33:41;5.43;;;3.30;;
67272;SDS011;54190;49.770;9.250;2023-10-08T08:36:22;5.57;;;3.70;;
67272;SDS011;54190;49.770;9.250;2023-10-08T08:38:49;6.67;;;3.53;;
67272;SDS011;54190;49.770;9.250;2023-10-08T08:41:15;5.50;;;3.30;;
67272;SDS011;54190;49.770;9.250;2023-10-08T08:43:47;6.10;;;3.40;;
67272;SDS011;54190;49.770;9.250;2023-10-08T08:46:13;6.67;;;4.13;;
67272;SDS011;54190;49.770;9.250;2023-10-08T08:48:40;5.50;;;3.27;;
67272;SDS011;54190;49.770;9.250;2023-10-08T08:51:07;6.53;;;2.93;;
67272;SDS011;54190;49.770;9.250;2023-10-08T08:53:35;5.67;;;3.07;;
67272;SDS011;54190;49.770;9.250;2023-10-08T08:56:06;5.80;;;3.17;;
67272;SDS011;54190;49.770;9.250;2023-10-08T08:58:34;5.13;;;2.93;;
67272;SDS011;54190;49.770;9.250;2023-10-08T09:01:02;5.87;;;3.30;;
67272;SDS011;54190;49.770;9.250;2023-10-08T09:03:31;6.03;;;3.10;;
67272;SDS011;54190;49.770;9.250;2023-10-08T09:05:57;7.20;;;2.93;;
67272;SDS011;54190;49.770;9.250;2023-10-08T09:08:27;6.03;;;3.60;;
67272;SDS011;54190;49.770;9.250;2023-10-08T09:11:03;5.00;;;3.63;;
67272;SDS011;54190;49.770;9.250;2023-10-08T09:13:33;5.20;;;2.90;;
67272;SDS011;54190;49.770;9.250;2023-10-08T09:16:16;5.60;;;3.10;;
67272;SDS011;54190;49.770;9.250;2023-10-08T09:18:46;6.93;;;3.47;;
67272;SDS011;54190;49.770;9.250;2023-10-08T09:21:16;6.30;;;3.67;;
67272;SDS011;54190;49.770;9.250;2023-10-08T09:23:44;6.97;;;4.20;;
67272;SDS011;54190;49.770;9.250;2023-10-08T09:26:21;6.37;;;3.20;;
67272;SDS011;54190;49.770;9.250;2023-10-08T09:28:50;5.83;;;3.57;;
67272;SDS011;54190;49.770;9.250;2023-10-08T09:31:18;7.50;;;3.47;;
67272;SDS011;54190;49.770;9.250;2023-10-08T09:33:54;5.60;;;4.03;;
67272;SDS011;54190;49.770;9.250;2023-10-08T09:36:21;5.90;;;3.33;;
67272;SDS011;54190;49.770;9.250;2023-10-08T09:38:58;6.43;;;3.63;;
67272;SDS011;54190;49.770;9.250;2023-10-08T09:41:28;5.60;;;3.27;;
67272;SDS011;54190;49.770;9.250;2023-10-08T09:43:55;5.67;;;3.33;;
67272;SDS011;54190;49.770;9.250;2023-10-08T09:46:25;6.63;;;3.53;;
67272;SDS011;54190;49.770;9.250;2023-10-08T09:49:00;7.53;;;3.43;;
67272;SDS011;54190;49.770;9.250;2023-10-08T09:51:29;5.77;;;3.20;;
67272;SDS011;54190;49.770;9.250;2023-10-08T09:56:35;5.60;;;3.33;;
67272;SDS011;54190;49.770;9.250;2023-10-08T09:59:02;5.77;;;3.07;;
67272;SDS011;54190;49.770;9.250;2023-10-08T10:01:28;7.87;;;3.50;;
67272;SDS011;54190;49.770;9.250;2023-10-08T10:03:57;7.13;;;3.90;;
67272;SDS011;54190;49.770;9.250;2023-10-08T10:06:25;6.07;;;4.03;;
67272;SDS011;54190;49.770;9.250;2023-10-08T10:08:51;6.60;;;3.80;;
67272;SDS011;54190;49.770;9.250;2023-10-08T10:11:25;8.07;;;3.70;;
67272;SDS011;54190;49.770;9.250;2023-10-08T10:13:57;7.13;;;3.80;;
67272;SDS011;54190;49.770;9.250;2023-10-08T10:16:27;8.27;;;3.40;;
67272;SDS011;54190;49.770;9.250;2023-10-08T10:18:56;6.80;;;3.83;;
67272;SDS011;54190;49.770;9.250;2023-10-08T10:21:29;6.67;;;3.37;;
67272;SDS011;54190;49.770;9.250;2023-10-08T10:23:56;6.00;;;3.53;;
67272;SDS011;54190;49.770;9.250;2023-10-08T10:31:34;6.30;;;3.30;;
67272;SDS011;54190;49.770;9.250;2023-10-08T10:34:09;5.57;;;3.33;;
67272;SDS011;54190;49.770;9.250;2023-10-08T10:36:39;5.23;;;3.10;;
67272;SDS011;54190;49.770;9.250;2023-10-08T10:39:11;6.83;;;3.20;;
67272;SDS011;54190;49.770;9.250;2023-10-08T10:41:54;5.63;;;3.40;;
67272;SDS011;54190;49.770;9.250;2023-10-08T10:44:32;7.63;;;4.00;;
67272;SDS011;54190;49.770;9.250;2023-10-08T10:47:01;5.80;;;3.40;;
67272;SDS011;54190;49.770;9.250;2023-10-08T10:49:49;10.20;;;3.90;;
67272;SDS011;54190;49.770;9.250;2023-10-08T10:52:28;5.63;;;3.07;;
67272;SDS011;54190;49.770;9.250;2023-10-08T10:55:04;6.03;;;3.10;;
67272;SDS011;54190;49.770;9.250;2023-10-08T10:57:40;6.40;;;3.40;;
67272;SDS011;54190;49.770;9.250;2023-10-08T11:00:07;5.00;;;3.00;;
67272;SDS011;54190;49.770;9.250;2023-10-08T11:02:52;8.20;;;4.03;;
67272;SDS011;54190;49.770;9.250;2023-10-08T11:05:22;7.20;;;3.43;;
67272;SDS011;54190;49.770;9.250;2023-10-08T11:07:56;6.73;;;3.80;;
67272;SDS011;54190;49.770;9.250;2023-10-08T11:10:36;6.93;;;3.63;;
67272;SDS011;54190;49.770;9.250;2023-10-08T11:13:04;6.47;;;3.57;;
67272;SDS011;54190;49.770;9.250;2023-10-08T11:15:39;6.70;;;3.43;;
67272;SDS011;54190;49.770;9.250;2023-10-08T11:18:12;6.10;;;3.60;;
67272;SDS011;54190;49.770;9.250;2023-10-08T11:20:42;6.10;;;3.30;;
67272;SDS011;54190;49.770;9.250;2023-10-08T11:23:30;6.30;;;3.53;;
67272;SDS011;54190;49.770;9.250;2023-10-08T11:26:00;5.07;;;3.60;;
67272;SDS011;54190;49.770;9.250;2023-10-08T11:28:37;6.07;;;3.20;;
67272;SDS011;54190;49.770;9.250;2023-10-08T11:31:12;7.10;;;3.43;;
67272;SDS011;54190;49.770;9.250;2023-10-08T11:33:41;7.60;;;3.80;;
67272;SDS011;54190;49.770;9.250;2023-10-08T11:36:08;4.93;;;3.30;;
67272;SDS011;54190;49.770;9.250;2023-10-08T11:38:44;5.70;;;3.20;;
67272;SDS011;54190;49.770;9.250;2023-10-08T11:41:15;10.47;;;4.50;;
67272;SDS011;54190;49.770;9.250;2023-10-08T11:46:24;6.27;;;3.30;;
67272;SDS011;54190;49.770;9.250;2023-10-08T11:49:14;6.53;;;3.47;;
67272;SDS011;54190;49.770;9.250;2023-10-08T11:51:43;5.37;;;3.30;;
67272;SDS011;54190;49.770;9.250;2023-10-08T11:54:10;4.90;;;2.83;;
67272;SDS011;54190;49.770;9.250;2023-10-08T11:56:37;5.80;;;3.37;;
67272;SDS011;54190;49.770;9.250;2023-10-08T11:59:04;7.90;;;3.37;;
67272;SDS011;54190;49.770;9.250;2023-10-08T12:01:37;6.63;;;4.00;;
67272;SDS011;54190;49.770;9.250;2023-10-08T12:04:07;5.80;;;3.40;;
67272;SDS011;54190;49.770;9.250;2023-10-08T12:06:38;6.10;;;3.53;;
67272;SDS011;54190;49.770;9.250;2023-10-08T12:09:11;7.00;;;3.40;;
67272;SDS011;54190;49.770;9.250;2023-10-08T12:11:41;5.63;;;3.10;;
67272;SDS011;54190;49.770;9.250;2023-10-08T12:14:07;8.40;;;4.90;;
67272;SDS011;54190;49.770;9.250;2023-10-08T12:16:34;6.90;;;3.57;;
67272;SDS011;54190;49.770;9.250;2023-10-08T12:19:04;5.27;;;3.10;;
67272;SDS011;54190;49.770;9.250;2023-10-08T12:21:40;7.77;;;3.77;;
67272;SDS011;54190;49.770;9.250;2023-10-08T12:24:06;6.47;;;3.10;;
67272;SDS011;54190;49.770;9.250;2023-10-08T12:26:35;6.83;;;3.60;;
67272;SDS011;54190;49.770;9.250;2023-10-08T12:29:01;6.27;;;2.87;;
67272;SDS011;54190;49.770;9.250;2023-10-08T12:31:27;6.27;;;3.40;;
67272;SDS011;54190;49.770;9.250;2023-10-08T12:33:54;5.80;;;3.63;;
67272;SDS011;54190;49.770;9.250;2023-10-08T12:36:25;6.87;;;3.70;;
67272;SDS011;54190;49.770;9.250;2023-10-08T12:38:52;7.23;;;3.60;;
67272;SDS011;54190;49.770;9.250;2023-10-08T12:41:25;7.00;;;3.57;;
67272;SDS011;54190;49.770;9.250;2023-10-08T12:43:54;5.90;;;3.50;;
67272;SDS011;54190;49.770;9.250;2023-10-08T12:46:20;4.60;;;2.77;;
67272;SDS011;54190;49.770;9.250;2023-10-08T12:48:50;6.03;;;3.10;;
67272;SDS011;54190;49.770;9.250;2023-10-08T12:51:20;7.33;;;4.53;;
67272;SDS011;54190;49.770;9.250;2023-10-08T12:53:49;8.20;;;3.30;;
67272;SDS011;54190;49.770;9.250;2023-10-08T12:56:20;6.03;;;3.17;;
67272;SDS011;54190;49.770;9.250;2023-10-08T12:58:56;6.77;;;3.37;;
67272;SDS011;54190;49.770;9.250;2023-10-08T13:01:23;6.23;;;3.00;;
67272;SDS011;54190;49.770;9.250;2023-10-08T13:03:49;6.00;;;3.20;;
67272;SDS011;54190;49.770;9.250;2023-10-08T13:06:15;11.03;;;3.67;;
67272;SDS011;54190;49.770;9.250;2023-10-08T13:08:58;6.40;;;2.80;;
67272;SDS011;54190;49.770;9.250;2023-10-08T13:11:25;5.87;;;3.33;;
67272;SDS011;54190;49.770;9.250;2023-10-08T13:13:55;6.83;;;3.63;;
67272;SDS011;54190;49.770;9.250;2023-10-08T13:16:22;7.00;;;3.77;;
67272;SDS011;54190;49.770;9.250;2023-10-08T13:18:55;6.27;;;3.87;;
67272;SDS011;54190;49.770;9.250;2023-10-08T13:21:23;4.80;;;3.20;;
67272;SDS011;54190;49.770;9.250;2023-10-08T13:23:53;6.30;;;3.47;;
67272;SDS011;54190;49.770;9.250;2023-10-08T13:26:22;5.57;;;3.47;;
67272;SDS011;54190;49.770;9.250;2023-10-08T13:28:49;5.80;;;3.40;;
67272;SDS011;54190;49.770;9.250;2023-10-08T13:31:15;5.73;;;3.10;;
67272;SDS011;54190;49.770;9.250;2023-10-08T13:33:42;6.60;;;3.60;;
67272;SDS011;54190;49.770;9.250;2023-10-08T13:36:10;5.50;;;3.20;;
67272;SDS011;54190;49.770;9.250;2023-10-08T13:38:38;6.40;;;4.07;;
67272;SDS011;54190;49.770;9.250;2023-10-08T13:41:06;6.77;;;4.10;;
67272;SDS011;54190;49.770;9.250;2023-10-08T13:43:43;6.57;;;3.30;;
67272;SDS011;54190;49.770;9.250;2023-10-08T13:46:13;8.93;;;3.40;;
67272;SDS011;54190;49.770;9.250;2023-10-08T13:48:41;5.23;;;3.30;;
67272;SDS011;54190;49.770;9.250;2023-10-08T13:51:11;7.47;;;3.30;;
67272;SDS011;54190;49.770;9.250;2023-10-08T13:53:47;5.23;;;3.00;;
67272;SDS011;54190;49.770;9.250;2023-10-08T13:56:17;5.00;;;3.30;;
67272;SDS011;54190;49.770;9.250;2023-10-08T13:58:51;5.33;;;2.90;;
67272;SDS011;54190;49.770;9.250;2023-10-08T14:01:23;5.83;;;3.20;;
67272;SDS011;54190;49.770;9.250;2023-10-08T14:03:50;5.33;;;3.23;;
67272;SDS011;54190;49.770;9.250;2023-10-08T14:06:21;5.57;;;3.73;;
67272;SDS011;54190;49.770;9.250;2023-10-08T14:08:47;7.47;;;4.20;;
67272;SDS011;54190;49.770;9.250;2023-10-08T14:11:20;4.70;;;3.23;;
67272;SDS011;54190;49.770;9.250;2023-10-08T14:13:52;7.60;;;3.37;;
67272;SDS011;54190;49.770;9.250;2023-10-08T14:16:18;5.77;;;3.50;;
67272;SDS011;54190;49.770;9.250;2023-10-08T14:18:49;4.73;;;2.83;;
67272;SDS011;54190;49.770;9.250;2023-10-08T14:21:19;7.37;;;2.97;;
67272;SDS011;54190;49.770;9.250;2023-10-08T14:23:58;5.10;;;3.20;;
67272;SDS011;54190;49.770;9.250;2023-10-08T14:26:28;5.73;;;3.27;;
67272;SDS011;54190;49.770;9.250;2023-10-08T14:29:01;7.20;;;3.37;;
67272;SDS011;54190;49.770;9.250;2023-10-08T14:31:38;7.07;;;3.67;;
67272;SDS011;54190;49.770;9.250;2023-10-08T14:34:04;9.87;;;3.33;;
67272;SDS011;54190;49.770;9.250;2023-10-08T14:36:31;6.00;;;3.43;;
67272;SDS011;54190;49.770;9.250;2023-10-08T14:39:16;5.17;;;3.50;;
67272;SDS011;54190;49.770;9.250;2023-10-08T14:42:14;4.60;;;3.10;;
67272;SDS011;54190;49.770;9.250;2023-10-08T14:44:59;5.77;;;3.30;;
67272;SDS011;54190;49.770;9.250;2023-10-08T14:47:25;7.60;;;3.30;;
67272;SDS011;54190;49.770;9.250;2023-10-08T14:49:51;6.83;;;3.67;;
67272;SDS011;54190;49.770;9.250;2023-10-08T14:52:17;5.50;;;3.27;;
67272;SDS011;54190;49.770;9.250;2023-10-08T14:54:43;8.17;;;3.00;;
67272;SDS011;54190;49.770;9.250;2023-10-08T14:57:10;5.37;;;3.03;;
67272;SDS011;54190;49.770;9.250;2023-10-08T14:59:40;8.57;;;3.93;;
67272;SDS011;54190;49.770;9.250;2023-10-08T15:02:06;6.43;;;3.20;;
67272;SDS011;54190;49.770;9.250;2023-10-08T15:04:32;7.70;;;3.40;;
67272;SDS011;54190;49.770;9.250;2023-10-08T15:07:01;7.97;;;3.60;;
67272;SDS011;54190;49.770;9.250;2023-10-08T15:09:27;5.87;;;3.50;;
67272;SDS011;54190;49.770;9.250;2023-10-08T15:11:53;5.33;;;3.30;;
67272;SDS011;54190;49.770;9.250;2023-10-08T15:14:19;4.83;;;3.10;;
67272;SDS011;54190;49.770;9.250;2023-10-08T15:16:47;6.40;;;3.27;;
67272;SDS011;54190;49.770;9.250;2023-10-08T15:19:20;6.10;;;3.80;;
67272;SDS011;54190;49.770;9.250;2023-10-08T15:21:50;5.57;;;3.53;;
67272;SDS011;54190;49.770;9.250;2023-10-08T15:24:19;6.60;;;3.70;;